sensor_id;sensor_type;location;lat;lon;timestamp;P1;durP1;ratioP1;P2;durP2;ratioP2
57746;SDS011;43580;44.014;20.466;2023-08-06T00:02:05;7.03;;;5.00;;
57746;SDS011;43580;44.014;20.466;2023-08-06T00:04:36;8.45;;;4.82;;
57746;SDS011;43580;44.014;20.466;2023-08-06T00:07:02;8.75;;;5.47;;
57746;SDS011;43580;44.014;20.466;2023-08-06T00:09:28;7.57;;;6.00;;
57746;SDS011;43580;44.014;20.466;2023-08-06T00:11:54;8.55;;;5.60;;
57746;SDS011;43580;44.014;20.466;2023-08-06T00:14:22;7.05;;;5.75;;
57746;SDS011;43580;44.014;20.466;2023-08-06T00:16:51;6.90;;;5.93;;
57746;SDS011;43580;44.014;20.466;2023-08-06T00:19:17;6.72;;;4.90;;
57746;SDS011;43580;44.014;20.466;2023-08-06T00:21:48;7.25;;;5.30;;
57746;SDS011;43580;44.014;20.466;2023-08-06T00:24:16;6.78;;;5.07;;
57746;SDS011;43580;44.014;20.466;2023-08-06T00:26:42;9.95;;;4.65;;
57746;SDS011;43580;44.014;20.466;2023-08-06T00:29:08;9.25;;;4.88;;
57746;SDS011;43580;44.014;20.466;2023-08-06T00:31:34;9.10;;;5.00;;
57746;SDS011;43580;44.014;20.466;2023-08-06T00:34:03;11.13;;;4.82;;
57746;SDS011;43580;44.014;20.466;2023-08-06T00:36:29;9.32;;;5.18;;
57746;SDS011;43580;44.014;20.466;2023-08-06T00:38:57;6.90;;;5.00;;
57746;SDS011;43580;44.014;20.466;2023-08-06T00:41:23;8.32;;;5.53;;
57746;SDS011;43580;44.014;20.466;2023-08-06T00:43:54;5.90;;;5.25;;
57746;SDS011;43580;44.014;20.466;2023-08-06T00:46:20;7.72;;;4.63;;
57746;SDS011;43580;44.014;20.466;2023-08-06T00:48:46;9.85;;;6.28;;
57746;SDS011;43580;44.014;20.466;2023-08-06T00:51:12;8.20;;;6.80;;
57746;SDS011;43580;44.014;20.466;2023-08-06T00:53:39;9.82;;;7.80;;
57746;SDS011;43580;44.014;20.466;2023-08-06T00:56:05;13.48;;;7.63;;
57746;SDS011;43580;44.014;20.466;2023-08-06T00:58:32;10.00;;;7.63;;
57746;SDS011;43580;44.014;20.466;2023-08-06T01:00:58;12.27;;;8.88;;
57746;SDS011;43580;44.014;20.466;2023-08-06T01:03:27;10.13;;;8.43;;
57746;SDS011;43580;44.014;20.466;2023-08-06T01:05:55;13.02;;;9.02;;
57746;SDS011;43580;44.014;20.466;2023-08-06T01:13:47;12.98;;;10.50;;
57746;SDS011;43580;44.014;20.466;2023-08-06T01:16:17;14.95;;;10.40;;
57746;SDS011;43580;44.014;20.466;2023-08-06T01:18:43;12.25;;;10.50;;
57746;SDS011;43580;44.014;20.466;2023-08-06T01:21:14;13.05;;;10.35;;
57746;SDS011;43580;44.014;20.466;2023-08-06T01:23:40;11.85;;;9.70;;
57746;SDS011;43580;44.014;20.466;2023-08-06T01:26:22;10.75;;;7.78;;
57746;SDS011;43580;44.014;20.466;2023-08-06T01:29:06;16.63;;;5.60;;
57746;SDS011;43580;44.014;20.466;2023-08-06T01:31:37;8.80;;;6.05;;
57746;SDS011;43580;44.014;20.466;2023-08-06T01:34:09;9.13;;;5.93;;
57746;SDS011;43580;44.014;20.466;2023-08-06T01:36:36;7.90;;;5.88;;
57746;SDS011;43580;44.014;20.466;2023-08-06T01:39:04;10.85;;;7.45;;
57746;SDS011;43580;44.014;20.466;2023-08-06T01:41:30;9.27;;;7.72;;
57746;SDS011;43580;44.014;20.466;2023-08-06T01:43:58;9.95;;;7.75;;
57746;SDS011;43580;44.014;20.466;2023-08-06T01:46:24;8.85;;;7.07;;
57746;SDS011;43580;44.014;20.466;2023-08-06T01:48:50;9.02;;;7.25;;
57746;SDS011;43580;44.014;20.466;2023-08-06T01:51:19;9.88;;;6.38;;
57746;SDS011;43580;44.014;20.466;2023-08-06T01:53:45;10.93;;;6.28;;
57746;SDS011;43580;44.014;20.466;2023-08-06T01:56:13;8.50;;;6.07;;
57746;SDS011;43580;44.014;20.466;2023-08-06T01:58:39;10.25;;;6.00;;
57746;SDS011;43580;44.014;20.466;2023-08-06T02:01:05;13.10;;;6.65;;
57746;SDS011;43580;44.014;20.466;2023-08-06T02:03:34;8.98;;;6.57;;
57746;SDS011;43580;44.014;20.466;2023-08-06T02:06:00;10.02;;;6.30;;
57746;SDS011;43580;44.014;20.466;2023-08-06T02:08:27;9.30;;;6.13;;
57746;SDS011;43580;44.014;20.466;2023-08-06T02:10:53;8.10;;;6.53;;
57746;SDS011;43580;44.014;20.466;2023-08-06T02:13:23;7.53;;;6.28;;
57746;SDS011;43580;44.014;20.466;2023-08-06T02:15:49;9.57;;;6.88;;
57746;SDS011;43580;44.014;20.466;2023-08-06T02:18:15;11.65;;;7.38;;
57746;SDS011;43580;44.014;20.466;2023-08-06T02:20:44;12.07;;;6.68;;
57746;SDS011;43580;44.014;20.466;2023-08-06T02:23:21;10.35;;;7.55;;
57746;SDS011;43580;44.014;20.466;2023-08-06T02:25:47;7.22;;;6.47;;
57746;SDS011;43580;44.014;20.466;2023-08-06T02:28:13;8.82;;;6.50;;
57746;SDS011;43580;44.014;20.466;2023-08-06T02:30:39;10.30;;;6.43;;
57746;SDS011;43580;44.014;20.466;2023-08-06T02:33:05;14.05;;;6.18;;
57746;SDS011;43580;44.014;20.466;2023-08-06T02:35:33;8.98;;;5.57;;
57746;SDS011;43580;44.014;20.466;2023-08-06T02:38:02;6.82;;;5.30;;
57746;SDS011;43580;44.014;20.466;2023-08-06T02:40:28;8.23;;;5.25;;
57746;SDS011;43580;44.014;20.466;2023-08-06T02:42:53;7.00;;;5.40;;
57746;SDS011;43580;44.014;20.466;2023-08-06T02:45:20;6.35;;;5.13;;
57746;SDS011;43580;44.014;20.466;2023-08-06T02:47:46;6.13;;;4.95;;
57746;SDS011;43580;44.014;20.466;2023-08-06T02:50:12;8.65;;;4.43;;
57746;SDS011;43580;44.014;20.466;2023-08-06T02:52:38;7.30;;;4.88;;
57746;SDS011;43580;44.014;20.466;2023-08-06T02:55:05;10.77;;;5.25;;
57746;SDS011;43580;44.014;20.466;2023-08-06T02:57:31;11.50;;;5.55;;
57746;SDS011;43580;44.014;20.466;2023-08-06T02:59:57;7.70;;;5.35;;
57746;SDS011;43580;44.014;20.466;2023-08-06T03:02:23;8.45;;;5.15;;
57746;SDS011;43580;44.014;20.466;2023-08-06T03:04:49;7.53;;;5.15;;
57746;SDS011;43580;44.014;20.466;2023-08-06T03:07:16;6.93;;;5.20;;
57746;SDS011;43580;44.014;20.466;2023-08-06T03:09:42;9.63;;;6.40;;
57746;SDS011;43580;44.014;20.466;2023-08-06T03:12:08;12.93;;;6.53;;
57746;SDS011;43580;44.014;20.466;2023-08-06T03:14:34;11.15;;;7.32;;
57746;SDS011;43580;44.014;20.466;2023-08-06T03:17:02;9.57;;;6.20;;
57746;SDS011;43580;44.014;20.466;2023-08-06T03:19:31;7.25;;;5.70;;
57746;SDS011;43580;44.014;20.466;2023-08-06T03:21:59;10.77;;;6.32;;
57746;SDS011;43580;44.014;20.466;2023-08-06T03:24:25;8.48;;;6.25;;
57746;SDS011;43580;44.014;20.466;2023-08-06T03:26:53;7.88;;;5.60;;
57746;SDS011;43580;44.014;20.466;2023-08-06T03:29:19;12.18;;;6.38;;
57746;SDS011;43580;44.014;20.466;2023-08-06T03:31:51;18.08;;;6.35;;
57746;SDS011;43580;44.014;20.466;2023-08-06T03:34:22;7.80;;;6.15;;
57746;SDS011;43580;44.014;20.466;2023-08-06T03:36:48;11.10;;;6.70;;
57746;SDS011;43580;44.014;20.466;2023-08-06T03:39:16;8.73;;;6.20;;
57746;SDS011;43580;44.014;20.466;2023-08-06T03:41:42;10.52;;;6.03;;
57746;SDS011;43580;44.014;20.466;2023-08-06T03:44:11;11.60;;;6.80;;
57746;SDS011;43580;44.014;20.466;2023-08-06T03:46:37;14.32;;;6.90;;
57746;SDS011;43580;44.014;20.466;2023-08-06T03:49:03;9.07;;;5.68;;
57746;SDS011;43580;44.014;20.466;2023-08-06T03:51:29;10.32;;;6.28;;
57746;SDS011;43580;44.014;20.466;2023-08-06T03:53:55;8.93;;;5.93;;
57746;SDS011;43580;44.014;20.466;2023-08-06T03:56:21;8.05;;;5.38;;
57746;SDS011;43580;44.014;20.466;2023-08-06T03:58:47;7.05;;;5.43;;
57746;SDS011;43580;44.014;20.466;2023-08-06T04:01:18;6.68;;;4.95;;
57746;SDS011;43580;44.014;20.466;2023-08-06T04:03:44;9.95;;;5.40;;
57746;SDS011;43580;44.014;20.466;2023-08-06T04:06:10;8.18;;;5.05;;
57746;SDS011;43580;44.014;20.466;2023-08-06T04:08:36;7.38;;;5.30;;
57746;SDS011;43580;44.014;20.466;2023-08-06T04:11:02;9.52;;;5.15;;
57746;SDS011;43580;44.014;20.466;2023-08-06T04:13:28;6.43;;;4.15;;
57746;SDS011;43580;44.014;20.466;2023-08-06T04:15:54;4.60;;;3.67;;
57746;SDS011;43580;44.014;20.466;2023-08-06T04:18:23;4.93;;;3.58;;
57746;SDS011;43580;44.014;20.466;2023-08-06T04:20:49;8.07;;;4.03;;
57746;SDS011;43580;44.014;20.466;2023-08-06T04:23:17;5.47;;;4.22;;
57746;SDS011;43580;44.014;20.466;2023-08-06T04:25:45;9.43;;;4.72;;
57746;SDS011;43580;44.014;20.466;2023-08-06T04:28:12;7.90;;;4.50;;
57746;SDS011;43580;44.014;20.466;2023-08-06T04:30:38;8.52;;;4.40;;
57746;SDS011;43580;44.014;20.466;2023-08-06T04:33:04;6.78;;;3.70;;
57746;SDS011;43580;44.014;20.466;2023-08-06T04:35:34;6.00;;;3.17;;
57746;SDS011;43580;44.014;20.466;2023-08-06T04:38:05;5.15;;;3.47;;
57746;SDS011;43580;44.014;20.466;2023-08-06T04:40:35;6.63;;;3.70;;
57746;SDS011;43580;44.014;20.466;2023-08-06T04:43:01;4.97;;;3.80;;
57746;SDS011;43580;44.014;20.466;2023-08-06T04:45:27;5.40;;;4.10;;
57746;SDS011;43580;44.014;20.466;2023-08-06T04:47:53;5.70;;;3.40;;
57746;SDS011;43580;44.014;20.466;2023-08-06T04:50:19;5.43;;;3.33;;
57746;SDS011;43580;44.014;20.466;2023-08-06T04:52:45;9.07;;;3.92;;
57746;SDS011;43580;44.014;20.466;2023-08-06T04:55:11;6.20;;;3.53;;
57746;SDS011;43580;44.014;20.466;2023-08-06T04:57:37;6.45;;;3.50;;
57746;SDS011;43580;44.014;20.466;2023-08-06T05:00:03;5.47;;;3.45;;
57746;SDS011;43580;44.014;20.466;2023-08-06T05:02:30;6.13;;;3.97;;
57746;SDS011;43580;44.014;20.466;2023-08-06T05:04:57;5.68;;;3.42;;
57746;SDS011;43580;44.014;20.466;2023-08-06T05:07:23;6.03;;;4.18;;
57746;SDS011;43580;44.014;20.466;2023-08-06T05:09:49;7.47;;;4.00;;
57746;SDS011;43580;44.014;20.466;2023-08-06T05:12:15;6.80;;;4.35;;
57746;SDS011;43580;44.014;20.466;2023-08-06T05:14:41;5.78;;;3.85;;
57746;SDS011;43580;44.014;20.466;2023-08-06T05:17:07;8.27;;;4.13;;
57746;SDS011;43580;44.014;20.466;2023-08-06T05:19:36;5.97;;;3.80;;
57746;SDS011;43580;44.014;20.466;2023-08-06T05:22:02;5.22;;;4.18;;
57746;SDS011;43580;44.014;20.466;2023-08-06T05:24:28;8.10;;;5.30;;
57746;SDS011;43580;44.014;20.466;2023-08-06T05:26:54;7.47;;;4.78;;
57746;SDS011;43580;44.014;20.466;2023-08-06T05:29:20;7.78;;;4.40;;
57746;SDS011;43580;44.014;20.466;2023-08-06T05:31:46;6.20;;;4.45;;
57746;SDS011;43580;44.014;20.466;2023-08-06T05:34:12;6.28;;;4.30;;
57746;SDS011;43580;44.014;20.466;2023-08-06T05:36:38;5.95;;;4.30;;
57746;SDS011;43580;44.014;20.466;2023-08-06T05:39:04;6.80;;;4.07;;
57746;SDS011;43580;44.014;20.466;2023-08-06T05:41:30;6.55;;;4.50;;
57746;SDS011;43580;44.014;20.466;2023-08-06T05:43:56;6.72;;;4.03;;
57746;SDS011;43580;44.014;20.466;2023-08-06T05:46:22;6.13;;;4.25;;
57746;SDS011;43580;44.014;20.466;2023-08-06T05:48:50;9.60;;;5.03;;
57746;SDS011;43580;44.014;20.466;2023-08-06T05:51:16;7.88;;;4.60;;
57746;SDS011;43580;44.014;20.466;2023-08-06T05:53:42;6.88;;;4.13;;
57746;SDS011;43580;44.014;20.466;2023-08-06T05:56:08;7.03;;;4.40;;
57746;SDS011;43580;44.014;20.466;2023-08-06T05:58:34;5.88;;;4.10;;
57746;SDS011;43580;44.014;20.466;2023-08-06T06:01:00;5.70;;;4.03;;
57746;SDS011;43580;44.014;20.466;2023-08-06T06:03:26;8.68;;;4.00;;
57746;SDS011;43580;44.014;20.466;2023-08-06T06:05:52;6.45;;;4.50;;
57746;SDS011;43580;44.014;20.466;2023-08-06T06:08:19;7.47;;;4.60;;
57746;SDS011;43580;44.014;20.466;2023-08-06T06:10:45;6.80;;;4.15;;
57746;SDS011;43580;44.014;20.466;2023-08-06T06:13:13;4.53;;;3.80;;
57746;SDS011;43580;44.014;20.466;2023-08-06T06:15:39;17.98;;;11.13;;
57746;SDS011;43580;44.014;20.466;2023-08-06T06:18:05;8.98;;;4.80;;
57746;SDS011;43580;44.014;20.466;2023-08-06T06:20:32;8.23;;;4.10;;
57746;SDS011;43580;44.014;20.466;2023-08-06T06:22:58;6.65;;;4.20;;
57746;SDS011;43580;44.014;20.466;2023-08-06T06:25:27;6.53;;;4.38;;
57746;SDS011;43580;44.014;20.466;2023-08-06T06:27:58;7.68;;;5.45;;
57746;SDS011;43580;44.014;20.466;2023-08-06T06:30:24;8.07;;;4.45;;
57746;SDS011;43580;44.014;20.466;2023-08-06T06:32:52;5.78;;;3.95;;
57746;SDS011;43580;44.014;20.466;2023-08-06T06:35:18;8.15;;;4.63;;
57746;SDS011;43580;44.014;20.466;2023-08-06T06:37:44;8.25;;;4.30;;
57746;SDS011;43580;44.014;20.466;2023-08-06T06:40:12;8.88;;;4.05;;
57746;SDS011;43580;44.014;20.466;2023-08-06T06:42:38;5.93;;;4.38;;
57746;SDS011;43580;44.014;20.466;2023-08-06T06:45:04;5.28;;;4.10;;
57746;SDS011;43580;44.014;20.466;2023-08-06T06:47:31;6.47;;;4.30;;
57746;SDS011;43580;44.014;20.466;2023-08-06T06:49:57;7.80;;;4.68;;
57746;SDS011;43580;44.014;20.466;2023-08-06T06:52:23;10.30;;;4.70;;
57746;SDS011;43580;44.014;20.466;2023-08-06T06:54:49;5.93;;;4.32;;
57746;SDS011;43580;44.014;20.466;2023-08-06T06:57:15;7.93;;;4.43;;
57746;SDS011;43580;44.014;20.466;2023-08-06T06:59:41;7.97;;;4.35;;
57746;SDS011;43580;44.014;20.466;2023-08-06T07:02:07;6.55;;;4.55;;
57746;SDS011;43580;44.014;20.466;2023-08-06T07:04:33;11.05;;;4.60;;
57746;SDS011;43580;44.014;20.466;2023-08-06T07:07:01;5.47;;;3.75;;
57746;SDS011;43580;44.014;20.466;2023-08-06T07:09:30;5.53;;;3.88;;
57746;SDS011;43580;44.014;20.466;2023-08-06T07:11:56;8.50;;;4.55;;
57746;SDS011;43580;44.014;20.466;2023-08-06T07:14:24;7.25;;;4.18;;
57746;SDS011;43580;44.014;20.466;2023-08-06T07:16:50;6.13;;;4.50;;
57746;SDS011;43580;44.014;20.466;2023-08-06T07:19:20;8.40;;;4.47;;
57746;SDS011;43580;44.014;20.466;2023-08-06T07:21:47;6.80;;;4.20;;
57746;SDS011;43580;44.014;20.466;2023-08-06T07:24:13;6.72;;;4.35;;
57746;SDS011;43580;44.014;20.466;2023-08-06T07:26:43;5.97;;;4.15;;
57746;SDS011;43580;44.014;20.466;2023-08-06T07:29:09;7.03;;;4.90;;
57746;SDS011;43580;44.014;20.466;2023-08-06T07:31:35;9.50;;;5.60;;
57746;SDS011;43580;44.014;20.466;2023-08-06T07:34:01;6.47;;;5.05;;
57746;SDS011;43580;44.014;20.466;2023-08-06T07:36:27;6.82;;;5.10;;
57746;SDS011;43580;44.014;20.466;2023-08-06T07:38:54;6.63;;;5.70;;
57746;SDS011;43580;44.014;20.466;2023-08-06T07:41:23;8.05;;;5.45;;
57746;SDS011;43580;44.014;20.466;2023-08-06T07:43:49;7.85;;;5.75;;
57746;SDS011;43580;44.014;20.466;2023-08-06T07:46:15;11.27;;;6.18;;
57746;SDS011;43580;44.014;20.466;2023-08-06T07:48:41;7.63;;;5.97;;
57746;SDS011;43580;44.014;20.466;2023-08-06T07:51:07;10.23;;;6.10;;
57746;SDS011;43580;44.014;20.466;2023-08-06T07:53:33;7.47;;;6.20;;
57746;SDS011;43580;44.014;20.466;2023-08-06T07:55:59;11.77;;;9.02;;
57746;SDS011;43580;44.014;20.466;2023-08-06T07:58:27;8.68;;;6.30;;
57746;SDS011;43580;44.014;20.466;2023-08-06T08:01:01;8.75;;;6.13;;
57746;SDS011;43580;44.014;20.466;2023-08-06T08:03:29;9.10;;;6.97;;
57746;SDS011;43580;44.014;20.466;2023-08-06T08:06:00;7.28;;;6.47;;
57746;SDS011;43580;44.014;20.466;2023-08-06T08:08:26;7.90;;;6.35;;
57746;SDS011;43580;44.014;20.466;2023-08-06T08:10:53;8.93;;;5.97;;
57746;SDS011;43580;44.014;20.466;2023-08-06T08:13:20;7.53;;;6.72;;
57746;SDS011;43580;44.014;20.466;2023-08-06T08:15:46;9.23;;;6.88;;
57746;SDS011;43580;44.014;20.466;2023-08-06T08:18:12;6.78;;;6.07;;
57746;SDS011;43580;44.014;20.466;2023-08-06T08:20:43;9.23;;;6.53;;
57746;SDS011;43580;44.014;20.466;2023-08-06T08:23:09;8.93;;;6.53;;
57746;SDS011;43580;44.014;20.466;2023-08-06T08:25:40;9.45;;;6.40;;
57746;SDS011;43580;44.014;20.466;2023-08-06T08:28:06;9.35;;;7.28;;
57746;SDS011;43580;44.014;20.466;2023-08-06T08:30:33;10.38;;;6.97;;
57746;SDS011;43580;44.014;20.466;2023-08-06T08:32:59;9.05;;;7.07;;
57746;SDS011;43580;44.014;20.466;2023-08-06T08:35:27;7.68;;;6.97;;
57746;SDS011;43580;44.014;20.466;2023-08-06T08:37:53;7.53;;;6.78;;
57746;SDS011;43580;44.014;20.466;2023-08-06T08:40:19;13.45;;;7.97;;
57746;SDS011;43580;44.014;20.466;2023-08-06T08:42:46;8.85;;;7.20;;
57746;SDS011;43580;44.014;20.466;2023-08-06T08:45:13;9.07;;;7.90;;
57746;SDS011;43580;44.014;20.466;2023-08-06T08:47:40;9.70;;;7.40;;
57746;SDS011;43580;44.014;20.466;2023-08-06T08:50:07;10.93;;;7.35;;
57746;SDS011;43580;44.014;20.466;2023-08-06T08:52:34;11.00;;;8.32;;
57746;SDS011;43580;44.014;20.466;2023-08-06T08:55:03;10.27;;;7.93;;
57746;SDS011;43580;44.014;20.466;2023-08-06T08:57:30;9.50;;;7.70;;
57746;SDS011;43580;44.014;20.466;2023-08-06T09:00:00;12.52;;;9.48;;
57746;SDS011;43580;44.014;20.466;2023-08-06T09:02:28;12.98;;;10.50;;
57746;SDS011;43580;44.014;20.466;2023-08-06T09:04:57;10.85;;;9.38;;
57746;SDS011;43580;44.014;20.466;2023-08-06T09:07:26;11.82;;;8.85;;
57746;SDS011;43580;44.014;20.466;2023-08-06T09:09:53;16.70;;;11.68;;
57746;SDS011;43580;44.014;20.466;2023-08-06T09:12:22;10.90;;;7.82;;
57746;SDS011;43580;44.014;20.466;2023-08-06T09:14:48;8.63;;;7.75;;
57746;SDS011;43580;44.014;20.466;2023-08-06T09:17:14;8.88;;;7.97;;
57746;SDS011;43580;44.014;20.466;2023-08-06T09:19:44;9.82;;;7.93;;
57746;SDS011;43580;44.014;20.466;2023-08-06T09:22:12;11.07;;;8.50;;
57746;SDS011;43580;44.014;20.466;2023-08-06T09:24:39;10.45;;;8.98;;
57746;SDS011;43580;44.014;20.466;2023-08-06T09:27:05;9.90;;;8.95;;
57746;SDS011;43580;44.014;20.466;2023-08-06T09:29:36;11.98;;;10.77;;
57746;SDS011;43580;44.014;20.466;2023-08-06T09:32:05;10.55;;;9.30;;
57746;SDS011;43580;44.014;20.466;2023-08-06T09:34:31;10.88;;;9.77;;
57746;SDS011;43580;44.014;20.466;2023-08-06T09:36:57;11.18;;;9.85;;
57746;SDS011;43580;44.014;20.466;2023-08-06T09:39:29;11.07;;;9.98;;
57746;SDS011;43580;44.014;20.466;2023-08-06T09:41:59;11.75;;;10.15;;
57746;SDS011;43580;44.014;20.466;2023-08-06T09:44:26;12.63;;;11.27;;
57746;SDS011;43580;44.014;20.466;2023-08-06T09:49:18;18.73;;;14.02;;
57746;SDS011;43580;44.014;20.466;2023-08-06T09:51:45;15.18;;;11.82;;
57746;SDS011;43580;44.014;20.466;2023-08-06T09:54:15;13.25;;;10.98;;
57746;SDS011;43580;44.014;20.466;2023-08-06T09:56:42;13.48;;;12.13;;
57746;SDS011;43580;44.014;20.466;2023-08-06T09:59:08;12.32;;;10.02;;
57746;SDS011;43580;44.014;20.466;2023-08-06T10:01:36;11.75;;;10.57;;
57746;SDS011;43580;44.014;20.466;2023-08-06T10:04:05;13.32;;;11.05;;
57746;SDS011;43580;44.014;20.466;2023-08-06T10:06:36;12.57;;;10.70;;
57746;SDS011;43580;44.014;20.466;2023-08-06T10:09:03;11.95;;;10.60;;
57746;SDS011;43580;44.014;20.466;2023-08-06T10:11:30;18.08;;;11.63;;
57746;SDS011;43580;44.014;20.466;2023-08-06T10:16:57;16.65;;;12.13;;
57746;SDS011;43580;44.014;20.466;2023-08-06T10:19:23;17.98;;;13.95;;
57746;SDS011;43580;44.014;20.466;2023-08-06T10:22:08;21.10;;;14.38;;
57746;SDS011;43580;44.014;20.466;2023-08-06T10:27:20;17.55;;;13.30;;
57746;SDS011;43580;44.014;20.466;2023-08-06T10:29:47;16.90;;;12.68;;
57746;SDS011;43580;44.014;20.466;2023-08-06T10:32:14;13.90;;;11.32;;
57746;SDS011;43580;44.014;20.466;2023-08-06T10:34:53;15.00;;;11.25;;
57746;SDS011;43580;44.014;20.466;2023-08-06T10:37:22;12.07;;;9.02;;
57746;SDS011;43580;44.014;20.466;2023-08-06T10:39:51;12.90;;;11.60;;
57746;SDS011;43580;44.014;20.466;2023-08-06T10:42:27;14.93;;;12.15;;
57746;SDS011;43580;44.014;20.466;2023-08-06T10:45:11;12.50;;;11.25;;
57746;SDS011;43580;44.014;20.466;2023-08-06T10:47:44;12.85;;;11.45;;
57746;SDS011;43580;44.014;20.466;2023-08-06T10:50:16;10.48;;;9.20;;
57746;SDS011;43580;44.014;20.466;2023-08-06T10:52:45;10.25;;;9.10;;
57746;SDS011;43580;44.014;20.466;2023-08-06T10:55:11;11.55;;;9.15;;
57746;SDS011;43580;44.014;20.466;2023-08-06T10:57:40;10.00;;;8.98;;
57746;SDS011;43580;44.014;20.466;2023-08-06T11:00:07;12.80;;;9.85;;
57746;SDS011;43580;44.014;20.466;2023-08-06T11:02:36;9.75;;;8.75;;
57746;SDS011;43580;44.014;20.466;2023-08-06T11:05:06;12.32;;;11.00;;
57746;SDS011;43580;44.014;20.466;2023-08-06T11:07:32;11.73;;;10.52;;
57746;SDS011;43580;44.014;20.466;2023-08-06T11:10:02;15.38;;;12.63;;
57746;SDS011;43580;44.014;20.466;2023-08-06T11:12:29;14.95;;;11.90;;
57746;SDS011;43580;44.014;20.466;2023-08-06T11:14:55;10.77;;;9.65;;
57746;SDS011;43580;44.014;20.466;2023-08-06T11:17:21;11.98;;;10.38;;
57746;SDS011;43580;44.014;20.466;2023-08-06T11:19:47;11.80;;;10.00;;
57746;SDS011;43580;44.014;20.466;2023-08-06T11:22:16;13.27;;;10.43;;
57746;SDS011;43580;44.014;20.466;2023-08-06T11:24:43;10.38;;;9.25;;
57746;SDS011;43580;44.014;20.466;2023-08-06T11:27:12;11.07;;;9.88;;
57746;SDS011;43580;44.014;20.466;2023-08-06T11:29:39;10.90;;;9.80;;
57746;SDS011;43580;44.014;20.466;2023-08-06T11:32:05;12.23;;;10.93;;
57746;SDS011;43580;44.014;20.466;2023-08-06T11:34:31;13.73;;;11.05;;
57746;SDS011;43580;44.014;20.466;2023-08-06T11:36:57;11.20;;;9.70;;
57746;SDS011;43580;44.014;20.466;2023-08-06T11:39:26;13.23;;;11.02;;
57746;SDS011;43580;44.014;20.466;2023-08-06T11:41:54;13.88;;;11.77;;
57746;SDS011;43580;44.014;20.466;2023-08-06T11:44:21;13.63;;;11.30;;
57746;SDS011;43580;44.014;20.466;2023-08-06T11:46:55;13.95;;;11.18;;
57746;SDS011;43580;44.014;20.466;2023-08-06T11:49:42;14.63;;;13.02;;
57746;SDS011;43580;44.014;20.466;2023-08-06T11:54:37;15.32;;;12.85;;
57746;SDS011;43580;44.014;20.466;2023-08-06T11:57:06;18.80;;;13.90;;
57746;SDS011;43580;44.014;20.466;2023-08-06T11:59:32;20.65;;;16.42;;
57746;SDS011;43580;44.014;20.466;2023-08-06T12:02:02;22.30;;;17.38;;
57746;SDS011;43580;44.014;20.466;2023-08-06T12:04:31;17.10;;;14.90;;
57746;SDS011;43580;44.014;20.466;2023-08-06T12:07:06;18.15;;;14.63;;
57746;SDS011;43580;44.014;20.466;2023-08-06T12:09:35;22.73;;;17.33;;
57746;SDS011;43580;44.014;20.466;2023-08-06T12:12:01;21.77;;;17.33;;
57746;SDS011;43580;44.014;20.466;2023-08-06T12:14:28;20.77;;;15.55;;
57746;SDS011;43580;44.014;20.466;2023-08-06T12:16:54;17.35;;;14.27;;
57746;SDS011;43580;44.014;20.466;2023-08-06T12:19:20;88.88;;;39.22;;
57746;SDS011;43580;44.014;20.466;2023-08-06T12:21:48;87.85;;;48.80;;
57746;SDS011;43580;44.014;20.466;2023-08-06T12:24:14;404.55;;;154.50;;
57746;SDS011;43580;44.014;20.466;2023-08-06T12:26:40;216.65;;;86.50;;
57746;SDS011;43580;44.014;20.466;2023-08-06T12:29:09;158.07;;;63.47;;
57746;SDS011;43580;44.014;20.466;2023-08-06T12:31:35;32.95;;;20.73;;
57746;SDS011;43580;44.014;20.466;2023-08-06T12:34:01;24.17;;;17.33;;
57746;SDS011;43580;44.014;20.466;2023-08-06T12:36:27;22.65;;;18.13;;
57746;SDS011;43580;44.014;20.466;2023-08-06T12:38:53;40.53;;;30.38;;
57746;SDS011;43580;44.014;20.466;2023-08-06T12:41:26;23.85;;;20.05;;
57746;SDS011;43580;44.014;20.466;2023-08-06T12:43:52;22.10;;;18.52;;
57746;SDS011;43580;44.014;20.466;2023-08-06T12:46:18;166.23;;;76.45;;
57746;SDS011;43580;44.014;20.466;2023-08-06T12:48:46;43.30;;;28.85;;
57746;SDS011;43580;44.014;20.466;2023-08-06T12:51:13;53.03;;;41.38;;
57746;SDS011;43580;44.014;20.466;2023-08-06T12:53:42;27.25;;;23.45;;
57746;SDS011;43580;44.014;20.466;2023-08-06T12:56:08;21.85;;;18.13;;
57746;SDS011;43580;44.014;20.466;2023-08-06T12:58:34;16.15;;;14.45;;
57746;SDS011;43580;44.014;20.466;2023-08-06T13:01:00;19.70;;;16.67;;
57746;SDS011;43580;44.014;20.466;2023-08-06T13:03:28;23.65;;;19.60;;
57746;SDS011;43580;44.014;20.466;2023-08-06T13:05:54;23.88;;;18.65;;
57746;SDS011;43580;44.014;20.466;2023-08-06T13:08:20;178.60;;;103.32;;
57746;SDS011;43580;44.014;20.466;2023-08-06T13:10:49;707.25;;;265.80;;
57746;SDS011;43580;44.014;20.466;2023-08-06T13:13:15;490.92;;;144.02;;
57746;SDS011;43580;44.014;20.466;2023-08-06T13:15:43;184.55;;;61.60;;
57746;SDS011;43580;44.014;20.466;2023-08-06T13:18:09;37.42;;;21.45;;
57746;SDS011;43580;44.014;20.466;2023-08-06T13:20:38;193.63;;;111.65;;
57746;SDS011;43580;44.014;20.466;2023-08-06T13:23:07;415.75;;;185.25;;
57746;SDS011;43580;44.014;20.466;2023-08-06T13:25:33;23.50;;;16.58;;
57746;SDS011;43580;44.014;20.466;2023-08-06T13:28:02;25.05;;;18.75;;
57746;SDS011;43580;44.014;20.466;2023-08-06T13:30:28;14.10;;;11.27;;
57746;SDS011;43580;44.014;20.466;2023-08-06T13:32:54;14.48;;;12.13;;
57746;SDS011;43580;44.014;20.466;2023-08-06T13:35:23;14.95;;;13.35;;
57746;SDS011;43580;44.014;20.466;2023-08-06T13:37:49;12.82;;;11.52;;
57746;SDS011;43580;44.014;20.466;2023-08-06T13:40:15;13.07;;;11.75;;
57746;SDS011;43580;44.014;20.466;2023-08-06T13:42:41;14.52;;;11.55;;
57746;SDS011;43580;44.014;20.466;2023-08-06T13:45:07;13.52;;;11.77;;
57746;SDS011;43580;44.014;20.466;2023-08-06T13:47:36;13.38;;;11.98;;
57746;SDS011;43580;44.014;20.466;2023-08-06T13:50:04;14.55;;;11.48;;
57746;SDS011;43580;44.014;20.466;2023-08-06T13:52:31;12.75;;;11.38;;
57746;SDS011;43580;44.014;20.466;2023-08-06T13:54:57;13.93;;;12.38;;
57746;SDS011;43580;44.014;20.466;2023-08-06T13:57:23;35.20;;;22.17;;
57746;SDS011;43580;44.014;20.466;2023-08-06T13:59:49;14.73;;;13.32;;
57746;SDS011;43580;44.014;20.466;2023-08-06T14:02:15;13.30;;;11.82;;
57746;SDS011;43580;44.014;20.466;2023-08-06T14:04:41;11.80;;;10.70;;
57746;SDS011;43580;44.014;20.466;2023-08-06T14:07:07;12.10;;;10.90;;
57746;SDS011;43580;44.014;20.466;2023-08-06T14:09:33;10.85;;;8.85;;
57746;SDS011;43580;44.014;20.466;2023-08-06T14:11:59;10.98;;;9.45;;
57746;SDS011;43580;44.014;20.466;2023-08-06T14:14:35;11.25;;;10.05;;
57746;SDS011;43580;44.014;20.466;2023-08-06T14:17:01;10.48;;;9.38;;
57746;SDS011;43580;44.014;20.466;2023-08-06T14:19:29;10.98;;;9.88;;
57746;SDS011;43580;44.014;20.466;2023-08-06T14:21:56;13.18;;;10.20;;
57746;SDS011;43580;44.014;20.466;2023-08-06T14:24:22;12.73;;;10.07;;
57746;SDS011;43580;44.014;20.466;2023-08-06T14:26:48;14.05;;;11.40;;
57746;SDS011;43580;44.014;20.466;2023-08-06T14:29:21;12.95;;;10.65;;
57746;SDS011;43580;44.014;20.466;2023-08-06T14:31:47;12.50;;;9.50;;
57746;SDS011;43580;44.014;20.466;2023-08-06T14:34:13;15.73;;;11.82;;
57746;SDS011;43580;44.014;20.466;2023-08-06T14:36:39;13.32;;;10.15;;
57746;SDS011;43580;44.014;20.466;2023-08-06T14:39:05;19.67;;;11.63;;
57746;SDS011;43580;44.014;20.466;2023-08-06T14:41:31;10.57;;;8.40;;